Time;durP1;ratioP1;P1;durP2;ratioP2;P2;SDS_P1;SDS_P2;PMS_P1;PMS_P2;Temp;Humidity;BMP_temperature;BMP_pressure;BME280_temperature;BME280_humidity;BME280_pressure;Samples;Min_cycle;Max_cycle;Signal;HPM_P1;HPM_P2
2023/05/07 00:00:11;;;;;;;1.95;1.23;;;;;;;;;;1027491;28;20026;-74
2023/05/07 00:00:42;;;;;;;8.43;2.22;;;;;;;;;;1027608;28;20157;-73
2023/05/07 00:01:12;;;;;;;8.35;2.83;;;;;;;;;;1027818;28;20035;-74
2023/05/07 00:01:43;;;;;;;4.47;1.80;;;;;;;;;;1027767;28;20554;-74
2023/05/07 00:02:14;;;;;;;1.58;0.77;;;;;;;;;;1027719;28;20054;-74
2023/05/07 00:02:45;;;;;;;3.80;2.05;;;;;;;;;;1027894;28;20030;-74
2023/05/07 00:03:15;;;;;;;11.63;1.75;;;;;;;;;;1027853;28;20053;-74
2023/05/07 00:03:46;;;;;;;1.17;0.98;;;;;;;;;;1023343;29;20027;-73
2023/05/07 00:04:16;;;;;;;0.60;0.50;;;;;;;;;;1023418;29;20028;-73
2023/05/07 00:04:46;;;;;;;9.18;1.88;;;;;;;;;;1023449;29;20031;-74
2023/05/07 00:05:17;;;;;;;3.35;2.15;;;;;;;;;;1023708;28;20035;-74
2023/05/07 00:05:48;;;;;;;0.80;0.80;;;;;;;;;;1023294;29;20023;-73
2023/05/07 00:06:19;;;;;;;1.00;0.95;;;;;;;;;;1023413;29;20043;-73
2023/05/07 00:06:49;;;;;;;3.38;2.88;;;;;;;;;;1021314;29;20558;-74
2023/05/07 00:07:20;;;;;;;2.22;0.68;;;;;;;;;;1021346;29;20023;-74
2023/05/07 00:07:52;;;;;;;10.88;1.55;;;;;;;;;;1025678;28;20538;-74
2023/05/07 00:08:22;;;;;;;1.02;0.82;;;;;;;;;;1025497;28;20079;-74
2023/05/07 00:08:53;;;;;;;0.55;0.55;;;;;;;;;;1026626;28;20442;-74
2023/05/07 00:09:23;;;;;;;1.92;1.17;;;;;;;;;;1027793;28;20030;-74
2023/05/07 00:09:54;;;;;;;5.05;3.40;;;;;;;;;;1027833;28;20049;-74
2023/05/07 00:10:25;;;;;;;1.13;0.80;;;;;;;;;;1027738;28;20407;-73
2023/05/07 00:10:55;;;;;;;0.22;0.22;;;;;;;;;;1027244;28;20033;-73
2023/05/07 00:11:26;;;;;;;1.35;1.25;;;;;;;;;;1027527;28;20019;-73
2023/05/07 00:11:56;;;;;;;1.48;0.63;;;;;;;;;;1027427;28;20430;-74
2023/05/07 00:12:27;;;;;;;5.70;1.50;;;;;;;;;;1027280;28;20584;-74
2023/05/07 00:12:57;;;;;;;1.25;0.45;;;;;;;;;;1027691;28;20475;-73
2023/05/07 00:13:30;;;;;;;1.58;1.48;;;;;;;;;;1027899;28;20034;-73
2023/05/07 00:14:01;;;;;;;3.70;0.82;;;;;;;;;;1027828;28;20049;-73
2023/05/07 00:14:31;;;;;;;0.70;0.70;;;;;;;;;;1027477;28;20046;-73
2023/05/07 00:15:02;;;;;;;1.27;0.95;;;;;;;;;;1027842;28;20015;-73
2023/05/07 00:15:33;;;;;;;1.65;1.38;;;;;;;;;;1026823;28;20023;-73
2023/05/07 00:16:03;;;;;;;2.67;2.47;;;;;;;;;;1027620;28;20025;-73
2023/05/07 00:16:34;;;;;;;5.22;1.52;;;;;;;;;;1027660;28;20502;-74
2023/05/07 00:17:04;;;;;;;0.63;0.57;;;;;;;;;;1026735;28;20030;-73
2023/05/07 00:17:35;;;;;;;1.25;0.95;;;;;;;;;;1027575;28;20039;-74
2023/05/07 00:18:06;;;;;;;1.98;1.48;;;;;;;;;;1023352;29;20020;-73
2023/05/07 00:18:36;;;;;;;1.40;1.30;;;;;;;;;;1022280;29;20055;-73
2023/05/07 00:19:07;;;;;;;5.28;1.30;;;;;;;;;;1023378;29;20027;-73
2023/05/07 00:19:37;;;;;;;2.22;1.38;;;;;;;;;;1023535;29;20030;-74
2023/05/07 00:20:08;;;;;;;0.10;0.10;;;;;;;;;;1023412;29;20027;-74
2023/05/07 00:20:38;;;;;;;0.85;0.85;;;;;;;;;;1023179;28;20086;-73
2023/05/07 00:21:09;;;;;;;0.60;0.60;;;;;;;;;;1027786;28;20050;-73
2023/05/07 00:21:39;;;;;;;1.80;0.93;;;;;;;;;;1027873;28;20046;-73
2023/05/07 00:22:10;;;;;;;1.45;1.08;;;;;;;;;;1027134;28;20031;-74
2023/05/07 00:22:41;;;;;;;1.98;1.23;;;;;;;;;;1027388;28;20023;-73
2023/05/07 00:23:11;;;;;;;5.35;1.08;;;;;;;;;;1027359;28;20442;-74
2023/05/07 00:23:41;;;;;;;1.38;0.93;;;;;;;;;;1027493;28;20068;-73
2023/05/07 00:24:12;;;;;;;2.85;0.45;;;;;;;;;;1023326;29;20058;-74
2023/05/07 00:24:43;;;;;;;0.60;0.47;;;;;;;;;;1023410;29;20011;-74
2023/05/07 00:25:13;;;;;;;1.40;0.77;;;;;;;;;;1023389;29;20035;-73
2023/05/07 00:25:44;;;;;;;29.27;1.45;;;;;;;;;;1023530;28;20015;-73
2023/05/07 00:26:14;;;;;;;0.95;0.77;;;;;;;;;;1026875;28;20026;-74
2023/05/07 00:26:45;;;;;;;0.63;0.40;;;;;;;;;;1027495;28;20106;-74
2023/05/07 00:27:15;;;;;;;0.95;0.88;;;;;;;;;;1027730;28;20035;-74
2023/05/07 00:27:46;;;;;;;7.22;2.65;;;;;;;;;;1023255;29;20025;-74
2023/05/07 00:28:16;;;;;;;5.72;2.20;;;;;;;;;;1023459;29;20015;-73
2023/05/07 00:28:47;;;;;;;0.40;0.40;;;;;;;;;;1022277;29;20130;-74
2023/05/07 00:29:17;;;;;;;1.55;1.05;;;;;;;;;;1023557;28;20042;-73
2023/05/07 00:29:48;;;;;;;6.05;1.90;;;;;;;;;;1027700;28;20474;-74
2023/05/07 00:30:18;;;;;;;0.47;0.47;;;;;;;;;;1027494;28;20038;-74
2023/05/07 00:30:49;;;;;;;3.80;1.85;;;;;;;;;;1027577;28;20049;-73
2023/05/07 00:31:19;;;;;;;1.13;1.00;;;;;;;;;;1027824;28;20031;-73
2023/05/07 00:31:50;;;;;;;2.90;1.95;;;;;;;;;;1027642;28;20022;-74
2023/05/07 00:32:21;;;;;;;4.38;1.17;;;;;;;;;;1027344;28;20068;-73
2023/05/07 00:32:51;;;;;;;5.75;1.85;;;;;;;;;;1027222;28;20035;-74
2023/05/07 00:33:22;;;;;;;3.00;1.55;;;;;;;;;;1027446;28;20018;-73
2023/05/07 00:33:52;;;;;;;5.38;2.28;;;;;;;;;;1027205;28;20034;-73
2023/05/07 00:34:23;;;;;;;2.55;1.70;;;;;;;;;;1027288;28;20069;-74
2023/05/07 00:34:53;;;;;;;0.28;0.28;;;;;;;;;;1027311;28;20422;-74
2023/05/07 00:35:24;;;;;;;1.50;1.30;;;;;;;;;;1027355;28;20023;-73
2023/05/07 00:35:54;;;;;;;1.80;1.13;;;;;;;;;;1023445;28;20031;-73
2023/05/07 00:36:26;;;;;;;1.45;1.35;;;;;;;;;;1027506;28;20147;-74
2023/05/07 00:36:56;;;;;;;8.10;2.75;;;;;;;;;;1027087;28;20041;-74
2023/05/07 00:37:27;;;;;;;4.90;1.25;;;;;;;;;;1027308;28;20487;-74
2023/05/07 00:37:57;;;;;;;2.30;1.73;;;;;;;;;;1027256;28;20496;-74
2023/05/07 00:38:28;;;;;;;2.10;1.90;;;;;;;;;;1027191;28;20019;-73
2023/05/07 00:39:00;;;;;;;2.55;1.27;;;;;;;;;;1027331;28;20118;-73
2023/05/07 00:39:30;;;;;;;1.05;1.00;;;;;;;;;;1027770;28;20497;-74
2023/05/07 00:40:03;;;;;;;2.15;1.50;;;;;;;;;;1027645;28;20029;-74
2023/05/07 00:40:34;;;;;;;1.35;1.25;;;;;;;;;;1027463;28;20065;-74
2023/05/07 00:41:05;;;;;;;2.05;1.33;;;;;;;;;;1027550;28;20031;-74
2023/05/07 00:41:35;;;;;;;5.60;1.92;;;;;;;;;;1028645;28;20544;-74
2023/05/07 00:42:05;;;;;;;0.82;0.77;;;;;;;;;;1027661;28;20122;-73
2023/05/07 00:42:36;;;;;;;4.15;2.95;;;;;;;;;;1027466;28;20795;-73
2023/05/07 00:43:07;;;;;;;1.73;0.98;;;;;;;;;;1027606;28;20029;-73
2023/05/07 00:43:37;;;;;;;1.73;1.02;;;;;;;;;;1027745;28;20023;-74
2023/05/07 00:44:08;;;;;;;1.23;0.98;;;;;;;;;;1023237;29;20031;-73
2023/05/07 00:44:39;;;;;;;1.55;1.15;;;;;;;;;;1021359;29;20034;-73
2023/05/07 00:45:10;;;;;;;3.33;0.98;;;;;;;;;;1021358;29;20130;-73
2023/05/07 00:45:41;;;;;;;2.13;1.38;;;;;;;;;;1021200;29;20125;-74
2023/05/07 00:46:11;;;;;;;2.15;1.92;;;;;;;;;;1020928;29;20023;-73
2023/05/07 00:46:42;;;;;;;1.48;1.38;;;;;;;;;;1023332;29;20121;-73
2023/05/07 00:47:13;;;;;;;1.25;0.82;;;;;;;;;;1023593;28;20030;-74
2023/05/07 00:47:43;;;;;;;1.95;0.75;;;;;;;;;;1027571;28;20122;-73
2023/05/07 00:48:14;;;;;;;1.15;0.75;;;;;;;;;;1027556;28;20030;-74
2023/05/07 00:48:45;;;;;;;7.65;4.28;;;;;;;;;;1027551;28;20486;-75
2023/05/07 00:49:16;;;;;;;1.15;1.08;;;;;;;;;;1027693;28;20034;-74
2023/05/07 00:49:46;;;;;;;2.45;1.02;;;;;;;;;;1023121;29;20023;-75
2023/05/07 00:50:17;;;;;;;2.42;1.50;;;;;;;;;;1019193;29;20024;-74
2023/05/07 00:50:47;;;;;;;2.65;1.48;;;;;;;;;;1019213;29;20036;-74
2023/05/07 00:51:18;;;;;;;1.20;1.10;;;;;;;;;;1019377;29;20031;-74
2023/05/07 00:51:49;;;;;;;2.28;1.52;;;;;;;;;;1017515;29;20415;-74
2023/05/07 00:52:21;;;;;;;3.50;1.13;;;;;;;;;;1021157;28;20030;-74
2023/05/07 00:52:52;;;;;;;1.05;0.60;;;;;;;;;;1024690;28;20026;-74
2023/05/07 00:53:22;;;;;;;10.23;1.10;;;;;;;;;;1025302;28;20026;-74
2023/05/07 00:53:53;;;;;;;22.42;1.13;;;;;;;;;;1024032;28;20026;-74
2023/05/07 00:54:23;;;;;;;4.47;1.50;;;;;;;;;;1027468;28;20039;-73
2023/05/07 00:54:54;;;;;;;1.15;0.77;;;;;;;;;;1027767;28;20081;-73
2023/05/07 00:55:25;;;;;;;0.85;0.60;;;;;;;;;;1026794;28;20064;-73
2023/05/07 00:55:56;;;;;;;2.50;1.33;;;;;;;;;;1027466;28;20146;-73
2023/05/07 00:56:26;;;;;;;2.42;1.52;;;;;;;;;;1027043;28;20045;-73
2023/05/07 00:56:57;;;;;;;1.10;1.00;;;;;;;;;;1027639;28;20515;-74
2023/05/07 00:57:28;;;;;;;2.40;1.33;;;;;;;;;;1027661;28;20518;-74
2023/05/07 00:57:58;;;;;;;3.17;2.10;;;;;;;;;;1027535;28;20387;-73
2023/05/07 00:58:30;;;;;;;0.88;0.85;;;;;;;;;;1027556;28;20026;-74
2023/05/07 00:59:01;;;;;;;2.22;1.15;;;;;;;;;;1027567;28;20027;-73
2023/05/07 00:59:32;;;;;;;9.98;1.65;;;;;;;;;;1027660;28;20023;-74
2023/05/07 01:00:08;;;;;;;2.30;1.60;;;;;;;;;;1027632;28;20050;-75
2023/05/07 01:00:38;;;;;;;1.90;0.93;;;;;;;;;;1027012;28;20427;-74
2023/05/07 01:01:09;;;;;;;1.55;1.15;;;;;;;;;;1027683;28;20026;-74
2023/05/07 01:01:40;;;;;;;2.42;1.05;;;;;;;;;;1027781;28;20073;-73
2023/05/07 01:02:10;;;;;;;2.25;1.38;;;;;;;;;;1027182;28;20520;-74
2023/05/07 01:02:41;;;;;;;3.72;0.90;;;;;;;;;;1027142;28;20050;-74
2023/05/07 01:03:12;;;;;;;2.40;0.70;;;;;;;;;;1026107;28;20463;-75
2023/05/07 01:03:42;;;;;;;2.30;0.68;;;;;;;;;;1023127;29;20059;-73
2023/05/07 01:04:13;;;;;;;1.67;0.98;;;;;;;;;;1019247;29;20039;-73
2023/05/07 01:04:43;;;;;;;1.05;0.88;;;;;;;;;;1019636;29;20019;-73
2023/05/07 01:05:15;;;;;;;1.27;0.65;;;;;;;;;;1023446;28;20117;-74
2023/05/07 01:05:47;;;;;;;1.23;0.65;;;;;;;;;;1027524;28;20049;-74
2023/05/07 01:06:18;;;;;;;1.17;0.98;;;;;;;;;;1023280;29;20051;-74
2023/05/07 01:06:49;;;;;;;3.72;1.08;;;;;;;;;;1023211;29;20034;-74
2023/05/07 01:07:19;;;;;;;0.47;0.47;;;;;;;;;;1023400;29;20574;-75
2023/05/07 01:07:50;;;;;;;13.75;1.33;;;;;;;;;;1023373;28;20042;-73
2023/05/07 01:08:22;;;;;;;1.13;0.57;;;;;;;;;;1026390;28;20030;-74
2023/05/07 01:08:52;;;;;;;5.43;1.48;;;;;;;;;;1027387;28;20038;-74
2023/05/07 01:09:24;;;;;;;2.90;1.30;;;;;;;;;;1027659;28;20050;-74
2023/05/07 01:09:54;;;;;;;2.95;1.33;;;;;;;;;;1027667;28;20035;-74
2023/05/07 01:10:25;;;;;;;1.17;0.77;;;;;;;;;;1027613;28;20023;-74
2023/05/07 01:10:56;;;;;;;2.40;1.27;;;;;;;;;;1027394;28;20169;-73
2023/05/07 01:11:27;;;;;;;1.40;0.98;;;;;;;;;;1027692;28;20034;-74
2023/05/07 01:11:58;;;;;;;0.93;0.68;;;;;;;;;;1027649;28;20062;-74
2023/05/07 01:12:28;;;;;;;2.47;1.02;;;;;;;;;;1027574;28;20046;-74
2023/05/07 01:13:00;;;;;;;0.47;0.47;;;;;;;;;;1027302;28;20026;-74
2023/05/07 01:13:31;;;;;;;10.57;1.38;;;;;;;;;;1023275;29;20067;-74
2023/05/07 01:14:01;;;;;;;4.68;1.08;;;;;;;;;;1018396;29;20416;-73
2023/05/07 01:14:32;;;;;;;0.70;0.60;;;;;;;;;;1019143;29;20083;-74
2023/05/07 01:15:04;;;;;;;0.63;0.57;;;;;;;;;;1019471;29;20024;-73
2023/05/07 01:15:35;;;;;;;0.55;0.52;;;;;;;;;;1023682;28;20031;-74
2023/05/07 01:16:05;;;;;;;17.48;2.65;;;;;;;;;;1027449;28;20046;-74
2023/05/07 01:16:36;;;;;;;1.13;0.57;;;;;;;;;;1027635;28;20033;-74
2023/05/07 01:17:08;;;;;;;3.17;1.40;;;;;;;;;;1027173;28;20601;-73
2023/05/07 01:17:39;;;;;;;1.70;0.98;;;;;;;;;;1021910;29;20023;-74
2023/05/07 01:18:10;;;;;;;0.50;0.50;;;;;;;;;;1021407;29;20035;-74
2023/05/07 01:18:40;;;;;;;1.58;0.95;;;;;;;;;;1020536;29;20496;-73
2023/05/07 01:19:14;;;;;;;3.42;1.88;;;;;;;;;;1019201;29;20361;-74
2023/05/07 01:19:44;;;;;;;5.63;1.23;;;;;;;;;;1022833;28;20034;-74
2023/05/07 01:20:15;;;;;;;2.20;1.02;;;;;;;;;;1027403;28;20066;-73
2023/05/07 01:20:46;;;;;;;2.33;1.38;;;;;;;;;;1027400;28;20058;-74
2023/05/07 01:21:17;;;;;;;1.25;1.15;;;;;;;;;;1027697;28;20467;-74
2023/05/07 01:21:48;;;;;;;0.43;0.43;;;;;;;;;;1027489;28;20466;-74
2023/05/07 01:22:29;;;;;;;0.80;0.68;;;;;;;;;;1027589;28;20034;-74
2023/05/07 01:23:00;;;;;;;2.92;1.40;;;;;;;;;;1027050;28;20391;-74
2023/05/07 01:23:31;;;;;;;7.88;1.38;;;;;;;;;;1027682;28;20029;-74
2023/05/07 01:24:01;;;;;;;0.40;0.38;;;;;;;;;;1027605;28;20026;-74
2023/05/07 01:24:32;;;;;;;1.75;1.05;;;;;;;;;;1027548;28;20027;-74
2023/05/07 01:25:03;;;;;;;0.52;0.40;;;;;;;;;;1027573;28;20019;-74
2023/05/07 01:25:34;;;;;;;0.60;0.60;;;;;;;;;;1027660;28;20022;-74
2023/05/07 01:26:04;;;;;;;1.10;0.63;;;;;;;;;;1027457;28;20031;-74
2023/05/07 01:26:35;;;;;;;15.05;2.30;;;;;;;;;;1027155;28;20102;-74
2023/05/07 01:27:05;;;;;;;1.77;1.45;;;;;;;;;;1027415;28;20096;-74
2023/05/07 01:27:37;;;;;;;36.38;1.67;;;;;;;;;;1027561;28;20509;-74
2023/05/07 01:28:07;;;;;;;1.42;1.17;;;;;;;;;;1026609;28;20030;-73
2023/05/07 01:28:37;;;;;;;2.13;0.85;;;;;;;;;;1027463;28;20491;-74
2023/05/07 01:29:08;;;;;;;2.22;1.55;;;;;;;;;;1027514;28;20026;-74
2023/05/07 01:29:38;;;;;;;0.43;0.43;;;;;;;;;;1027271;28;20084;-74
2023/05/07 01:30:09;;;;;;;5.03;0.52;;;;;;;;;;1023104;29;20023;-74
2023/05/07 01:30:42;;;;;;;1.08;0.57;;;;;;;;;;1023313;29;20058;-74
2023/05/07 01:31:13;;;;;;;3.30;1.35;;;;;;;;;;1022470;29;20023;-74
2023/05/07 01:31:44;;;;;;;5.07;1.58;;;;;;;;;;1023955;28;20877;-74
2023/05/07 01:32:15;;;;;;;4.05;2.25;;;;;;;;;;1027455;28;20022;-74
2023/05/07 01:33:06;;;;;;;1.13;0.68;;;;;;;;;;1027390;28;20106;-74
2023/05/07 01:33:37;;;;;;;1.98;0.40;;;;;;;;;;1026601;28;20430;-73
2023/05/07 01:34:10;;;;;;;2.20;1.50;;;;;;;;;;1027530;28;20030;-74
2023/05/07 01:34:40;;;;;;;6.45;2.35;;;;;;;;;;1026803;28;20018;-73
2023/05/07 01:35:12;;;;;;;1.20;1.02;;;;;;;;;;1027436;28;20053;-74
2023/05/07 01:35:45;;;;;;;1.08;0.47;;;;;;;;;;1027583;28;20117;-74
2023/05/07 01:36:17;;;;;;;4.57;3.00;;;;;;;;;;1027532;28;20022;-74
2023/05/07 01:36:48;;;;;;;14.23;1.30;;;;;;;;;;1023086;29;20023;-73
2023/05/07 01:37:19;;;;;;;1.90;1.55;;;;;;;;;;1023427;29;20027;-74
2023/05/07 01:37:50;;;;;;;10.15;1.00;;;;;;;;;;1023280;29;20114;-73
2023/05/07 01:38:22;;;;;;;1.70;0.90;;;;;;;;;;1023322;28;20033;-73
2023/05/07 01:38:52;;;;;;;0.63;0.52;;;;;;;;;;1027443;28;20065;-73
2023/05/07 01:39:27;;;;;;;2.65;1.50;;;;;;;;;;1026590;28;20022;-73
2023/05/07 01:39:58;;;;;;;0.95;0.80;;;;;;;;;;1022408;29;20840;-73
2023/05/07 01:40:28;;;;;;;1.63;0.70;;;;;;;;;;1023212;29;20055;-73
2023/05/07 01:40:59;;;;;;;2.25;1.05;;;;;;;;;;1022857;29;20051;-74
2023/05/07 01:41:29;;;;;;;1.15;0.50;;;;;;;;;;1023345;28;20566;-73
2023/05/07 01:42:00;;;;;;;1.40;1.30;;;;;;;;;;1027465;28;20031;-73
2023/05/07 01:42:31;;;;;;;0.98;0.63;;;;;;;;;;1027522;28;20035;-73
2023/05/07 01:43:02;;;;;;;2.35;0.75;;;;;;;;;;1027466;28;20110;-73
2023/05/07 01:43:33;;;;;;;0.60;0.60;;;;;;;;;;1027621;28;20030;-73
2023/05/07 01:44:04;;;;;;;0.50;0.50;;;;;;;;;;1027575;28;20618;-74
2023/05/07 01:44:35;;;;;;;11.98;1.08;;;;;;;;;;1027458;28;20368;-74
2023/05/07 01:45:05;;;;;;;2.63;1.25;;;;;;;;;;1026390;28;20106;-73
2023/05/07 01:45:36;;;;;;;2.47;0.70;;;;;;;;;;1027414;28;20459;-73
2023/05/07 01:46:09;;;;;;;2.15;1.13;;;;;;;;;;1027553;28;20022;-73
2023/05/07 01:46:40;;;;;;;3.83;1.40;;;;;;;;;;1026908;28;20039;-74
2023/05/07 01:47:11;;;;;;;7.15;1.42;;;;;;;;;;1026430;28;20022;-74
2023/05/07 01:47:42;;;;;;;2.20;1.25;;;;;;;;;;1027571;28;20126;-73
2023/05/07 01:48:14;;;;;;;3.28;1.58;;;;;;;;;;1027822;28;20026;-73
2023/05/07 01:48:45;;;;;;;2.20;1.25;;;;;;;;;;1028084;28;20086;-73
2023/05/07 01:49:16;;;;;;;0.57;0.30;;;;;;;;;;1028495;28;20030;-73
2023/05/07 01:49:47;;;;;;;0.77;0.75;;;;;;;;;;1028220;28;20457;-74
2023/05/07 01:50:18;;;;;;;1.17;0.52;;;;;;;;;;1028204;28;20461;-74
2023/05/07 01:50:49;;;;;;;2.05;1.10;;;;;;;;;;1027249;28;20027;-74
2023/05/07 01:51:21;;;;;;;0.57;0.40;;;;;;;;;;1023989;29;20027;-74
2023/05/07 01:51:51;;;;;;;3.28;1.38;;;;;;;;;;1023869;29;20419;-73
2023/05/07 01:52:22;;;;;;;0.15;0.15;;;;;;;;;;1024105;29;20106;-74
2023/05/07 01:52:52;;;;;;;17.80;0.85;;;;;;;;;;1023991;28;20118;-73
2023/05/07 01:53:23;;;;;;;1.17;0.65;;;;;;;;;;1028414;28;20026;-74
2023/05/07 01:53:53;;;;;;;1.08;0.70;;;;;;;;;;1028354;28;20034;-73
2023/05/07 01:54:30;;;;;;;0.73;0.68;;;;;;;;;;1028207;28;20096;-74
2023/05/07 01:55:00;;;;;;;3.00;1.38;;;;;;;;;;1027462;28;20022;-74
2023/05/07 01:55:31;;;;;;;0.47;0.45;;;;;;;;;;1028336;28;20046;-74
2023/05/07 01:56:01;;;;;;;2.20;0.85;;;;;;;;;;1028026;28;20019;-73
2023/05/07 01:56:32;;;;;;;6.35;0.50;;;;;;;;;;1027989;28;20407;-74
2023/05/07 01:57:02;;;;;;;2.08;0.55;;;;;;;;;;1028180;28;20498;-74
2023/05/07 01:57:33;;;;;;;3.78;0.80;;;;;;;;;;1027917;28;20430;-73
2023/05/07 01:58:04;;;;;;;1.35;0.70;;;;;;;;;;1028017;28;20088;-74
2023/05/07 01:58:34;;;;;;;0.47;0.32;;;;;;;;;;1023812;29;20030;-73
2023/05/07 01:59:05;;;;;;;4.95;0.68;;;;;;;;;;1023754;29;20026;-73
2023/05/07 01:59:35;;;;;;;0.60;0.40;;;;;;;;;;1023207;29;20027;-73
2023/05/07 02:00:06;;;;;;;24.77;1.75;;;;;;;;;;1024033;28;20106;-73
2023/05/07 02:00:36;;;;;;;3.28;1.65;;;;;;;;;;1028161;28;20471;-74
2023/05/07 02:01:07;;;;;;;8.98;1.90;;;;;;;;;;1027766;28;20019;-74
2023/05/07 02:01:37;;;;;;;0.57;0.57;;;;;;;;;;1027946;28;20059;-73
2023/05/07 02:02:08;;;;;;;0.40;0.40;;;;;;;;;;1027873;28;20023;-74
2023/05/07 02:02:38;;;;;;;1.58;0.85;;;;;;;;;;1027840;28;20046;-74
2023/05/07 02:03:09;;;;;;;1.30;0.65;;;;;;;;;;1028130;28;20027;-74
2023/05/07 02:03:39;;;;;;;5.22;1.10;;;;;;;;;;1028270;28;20136;-74
2023/05/07 02:04:10;;;;;;;1.20;0.68;;;;;;;;;;1027788;28;20019;-73
2023/05/07 02:04:40;;;;;;;4.72;0.98;;;;;;;;;;1028009;28;20520;-75
2023/05/07 02:05:11;;;;;;;3.40;0.85;;;;;;;;;;1027898;28;20054;-74
2023/05/07 02:05:41;;;;;;;1.98;1.58;;;;;;;;;;1026913;28;20044;-73
2023/05/07 02:06:12;;;;;;;3.33;2.00;;;;;;;;;;1023838;29;20026;-74
2023/05/07 02:06:42;;;;;;;3.00;0.73;;;;;;;;;;1023966;29;20077;-75
2023/05/07 02:07:12;;;;;;;1.02;0.68;;;;;;;;;;1023807;29;20019;-75
2023/05/07 02:07:43;;;;;;;1.08;0.43;;;;;;;;;;1024079;28;20489;-74
2023/05/07 02:08:14;;;;;;;1.15;0.43;;;;;;;;;;1028124;28;20030;-74
2023/05/07 02:08:44;;;;;;;2.05;0.63;;;;;;;;;;1023619;29;20027;-74
2023/05/07 02:09:15;;;;;;;3.05;1.20;;;;;;;;;;1023977;29;20830;-74
2023/05/07 02:09:46;;;;;;;0.95;0.77;;;;;;;;;;1024004;29;20118;-74
2023/05/07 02:10:16;;;;;;;0.50;0.38;;;;;;;;;;1024144;28;20023;-75
2023/05/07 02:10:47;;;;;;;3.45;1.65;;;;;;;;;;1025442;28;20542;-74
2023/05/07 02:11:17;;;;;;;2.17;0.70;;;;;;;;;;1027097;28;20128;-74
2023/05/07 02:11:48;;;;;;;2.15;0.50;;;;;;;;;;1025934;28;20115;-74
2023/05/07 02:12:18;;;;;;;0.30;0.30;;;;;;;;;;1026194;28;20124;-74
2023/05/07 02:12:49;;;;;;;3.97;1.67;;;;;;;;;;1028039;28;20030;-74
2023/05/07 02:13:21;;;;;;;2.95;0.85;;;;;;;;;;1027934;28;20027;-75
2023/05/07 02:13:52;;;;;;;0.85;0.60;;;;;;;;;;1026837;28;20026;-74
2023/05/07 02:14:23;;;;;;;1.40;1.30;;;;;;;;;;1027822;28;20578;-73
2023/05/07 02:14:53;;;;;;;0.82;0.43;;;;;;;;;;1027970;28;20034;-74
2023/05/07 02:15:24;;;;;;;0.57;0.38;;;;;;;;;;1027200;28;20023;-74
2023/05/07 02:15:55;;;;;;;0.22;0.10;;;;;;;;;;1028144;28;20023;-74
2023/05/07 02:16:25;;;;;;;1.55;1.08;;;;;;;;;;1028246;28;20115;-73
2023/05/07 02:16:55;;;;;;;0.55;0.47;;;;;;;;;;1028159;28;20030;-73
2023/05/07 02:17:27;;;;;;;5.18;1.67;;;;;;;;;;1028230;28;20023;-74
2023/05/07 02:18:04;;;;;;;4.18;2.45;;;;;;;;;;1023720;29;20456;-74
2023/05/07 02:18:35;;;;;;;1.45;0.82;;;;;;;;;;1023657;29;20519;-74
2023/05/07 02:19:06;;;;;;;2.75;1.15;;;;;;;;;;1023662;29;20122;-75
2023/05/07 02:19:36;;;;;;;21.02;1.13;;;;;;;;;;1023998;29;20034;-73
2023/05/07 02:20:13;;;;;;;6.32;0.80;;;;;;;;;;1023954;28;20492;-74
2023/05/07 02:20:43;;;;;;;1.75;0.57;;;;;;;;;;1028208;28;20422;-74
2023/05/07 02:21:13;;;;;;;1.10;0.57;;;;;;;;;;1023828;29;20070;-75
2023/05/07 02:21:44;;;;;;;2.85;0.90;;;;;;;;;;1023874;29;20040;-73
2023/05/07 02:22:15;;;;;;;5.57;1.50;;;;;;;;;;1023897;29;20019;-75
2023/05/07 02:22:46;;;;;;;1.38;0.50;;;;;;;;;;1023958;28;20038;-75
2023/05/07 02:23:17;;;;;;;0.75;0.47;;;;;;;;;;1025636;28;20058;-74
2023/05/07 02:23:47;;;;;;;1.27;1.17;;;;;;;;;;1025733;28;20019;-74
2023/05/07 02:24:18;;;;;;;0.63;0.47;;;;;;;;;;1026146;28;20027;-73
2023/05/07 02:24:48;;;;;;;3.30;1.55;;;;;;;;;;1025832;28;20055;-74
2023/05/07 02:25:19;;;;;;;1.83;1.58;;;;;;;;;;1028202;28;20030;-75
2023/05/07 02:25:49;;;;;;;2.35;0.55;;;;;;;;;;1028089;28;20508;-74
2023/05/07 02:26:21;;;;;;;1.50;0.73;;;;;;;;;;1027119;28;20053;-75
2023/05/07 02:26:51;;;;;;;4.22;1.15;;;;;;;;;;1027727;28;20479;-74
2023/05/07 02:27:22;;;;;;;1.85;1.25;;;;;;;;;;1027802;28;20026;-74
2023/05/07 02:27:52;;;;;;;4.63;1.08;;;;;;;;;;1027793;28;20026;-74
2023/05/07 02:28:23;;;;;;;2.38;0.30;;;;;;;;;;1027957;28;20019;-75
2023/05/07 02:28:54;;;;;;;1.13;1.02;;;;;;;;;;1027689;28;20034;-74
2023/05/07 02:29:24;;;;;;;6.85;0.75;;;;;;;;;;1028163;28;20023;-75
2023/05/07 02:29:54;;;;;;;2.38;0.82;;;;;;;;;;1028187;28;20023;-75
2023/05/07 02:30:25;;;;;;;4.82;1.85;;;;;;;;;;1028083;28;20514;-75
2023/05/07 02:31:41;;;;;;;3.30;1.85;;;;;;;;;;1041078;23;20047;-74
2023/05/07 02:32:11;;;;;;;1.42;0.73;;;;;;;;;;1023692;29;20031;-74
2023/05/07 02:32:42;;;;;;;1.17;1.05;;;;;;;;;;1023773;29;20038;-74
2023/05/07 02:33:15;;;;;;;1.63;0.73;;;;;;;;;;1023718;29;20519;-75
2023/05/07 02:33:45;;;;;;;2.50;1.42;;;;;;;;;;1023835;29;20027;-74
2023/05/07 02:34:16;;;;;;;2.70;1.13;;;;;;;;;;1027582;28;20372;-75
2023/05/07 02:34:50;;;;;;;7.97;1.75;;;;;;;;;;1028026;28;20022;-75
2023/05/07 02:35:20;;;;;;;2.20;0.43;;;;;;;;;;1027414;28;20034;-74
2023/05/07 02:35:51;;;;;;;0.40;0.30;;;;;;;;;;1028085;28;20019;-74
2023/05/07 02:36:22;;;;;;;12.32;1.70;;;;;;;;;;1028152;28;20022;-74
2023/05/07 02:36:52;;;;;;;7.03;1.38;;;;;;;;;;1027970;28;20022;-74
2023/05/07 02:37:23;;;;;;;1.08;0.80;;;;;;;;;;1028196;28;20026;-74
2023/05/07 02:37:53;;;;;;;3.90;1.25;;;;;;;;;;1028016;28;20034;-74
2023/05/07 02:38:24;;;;;;;6.40;1.85;;;;;;;;;;1027995;28;20027;-74
2023/05/07 02:38:54;;;;;;;3.75;2.28;;;;;;;;;;1027677;28;20023;-74
2023/05/07 02:39:24;;;;;;;1.83;1.10;;;;;;;;;;1028122;28;20025;-74
2023/05/07 02:40:42;;;;;;;1.27;1.17;;;;;;;;;;1021518;29;20051;-72
2023/05/07 02:41:12;;;;;;;2.63;1.65;;;;;;;;;;1023716;29;20436;-72
2023/05/07 02:41:43;;;;;;;1.92;0.70;;;;;;;;;;1024091;29;20027;-72
2023/05/07 02:42:13;;;;;;;2.20;1.10;;;;;;;;;;1023858;29;20027;-73
2023/05/07 02:42:44;;;;;;;11.05;3.70;;;;;;;;;;1023930;29;20022;-74
2023/05/07 02:43:14;;;;;;;2.63;1.00;;;;;;;;;;1024115;29;20034;-73
2023/05/07 02:43:45;;;;;;;7.32;1.20;;;;;;;;;;1024082;29;20035;-73
2023/05/07 02:44:15;;;;;;;1.20;0.85;;;;;;;;;;1023888;29;20458;-73
2023/05/07 02:44:45;;;;;;;0.88;0.65;;;;;;;;;;1023606;29;20066;-73
2023/05/07 02:45:16;;;;;;;1.45;0.85;;;;;;;;;;1023894;29;20023;-73
2023/05/07 02:45:46;;;;;;;1.48;0.55;;;;;;;;;;1023625;29;20035;-75
2023/05/07 02:46:17;;;;;;;7.10;2.08;;;;;;;;;;1023688;29;20499;-73
2023/05/07 02:46:47;;;;;;;12.52;2.05;;;;;;;;;;1019701;29;20066;-73
2023/05/07 02:47:18;;;;;;;0.73;0.40;;;;;;;;;;1020095;29;20452;-73
2023/05/07 02:47:48;;;;;;;1.35;0.77;;;;;;;;;;1023519;29;20412;-73
2023/05/07 02:48:19;;;;;;;1.45;0.55;;;;;;;;;;1023739;29;20030;-72
2023/05/07 02:48:49;;;;;;;1.52;1.23;;;;;;;;;;1023607;29;20601;-73
2023/05/07 02:49:20;;;;;;;3.63;0.57;;;;;;;;;;1023879;29;20027;-72
2023/05/07 02:49:51;;;;;;;1.17;0.65;;;;;;;;;;1019851;29;20122;-74
2023/05/07 02:50:22;;;;;;;7.00;1.73;;;;;;;;;;1023662;29;20480;-72
2023/05/07 02:50:52;;;;;;;2.58;0.85;;;;;;;;;;1022540;29;20035;-72
2023/05/07 02:51:23;;;;;;;1.02;0.63;;;;;;;;;;1023756;29;20566;-72
2023/05/07 02:51:53;;;;;;;1.20;0.85;;;;;;;;;;1023654;29;20030;-73
2023/05/07 02:52:24;;;;;;;2.42;0.90;;;;;;;;;;1023037;29;20035;-73
2023/05/07 02:52:55;;;;;;;0.60;0.60;;;;;;;;;;1023900;29;20106;-73
2023/05/07 02:53:26;;;;;;;1.55;0.90;;;;;;;;;;1024267;29;20110;-73
2023/05/07 02:53:56;;;;;;;3.97;2.00;;;;;;;;;;1023041;29;20031;-73
2023/05/07 02:54:29;;;;;;;8.40;3.00;;;;;;;;;;1023802;29;20411;-73
2023/05/07 02:55:00;;;;;;;19.63;0.65;;;;;;;;;;1023872;29;20023;-73
2023/05/07 02:55:31;;;;;;;0.20;0.17;;;;;;;;;;1024209;29;20023;-73
2023/05/07 02:56:02;;;;;;;1.40;0.65;;;;;;;;;;1022763;29;20035;-73
2023/05/07 02:56:35;;;;;;;0.90;0.63;;;;;;;;;;1022784;29;20026;-73
2023/05/07 02:57:06;;;;;;;17.20;1.23;;;;;;;;;;1023923;29;20476;-73
2023/05/07 02:57:36;;;;;;;0.70;0.55;;;;;;;;;;1024046;29;20019;-74
2023/05/07 02:58:07;;;;;;;3.05;0.82;;;;;;;;;;1019679;29;20038;-73
2023/05/07 02:58:39;;;;;;;1.10;1.00;;;;;;;;;;1019838;29;20023;-73
2023/05/07 02:59:12;;;;;;;3.50;1.77;;;;;;;;;;1019632;29;20027;-74
2023/05/07 02:59:43;;;;;;;1.35;0.85;;;;;;;;;;1019181;29;20522;-74
2023/05/07 03:00:14;;;;;;;0.55;0.40;;;;;;;;;;1019392;29;20122;-74
2023/05/07 03:00:45;;;;;;;1.13;0.63;;;;;;;;;;1019735;29;20031;-73
2023/05/07 03:01:15;;;;;;;9.73;1.98;;;;;;;;;;1020005;29;20420;-73
2023/05/07 03:01:49;;;;;;;11.00;0.77;;;;;;;;;;1024006;29;20015;-73
2023/05/07 03:02:20;;;;;;;8.07;0.52;;;;;;;;;;1023433;29;20028;-76
2023/05/07 03:02:50;;;;;;;3.75;2.10;;;;;;;;;;1023626;29;20489;-74
2023/05/07 03:03:20;;;;;;;6.15;1.40;;;;;;;;;;1023771;29;20023;-74
2023/05/07 03:03:51;;;;;;;2.90;1.38;;;;;;;;;;1023504;29;20467;-73
2023/05/07 03:04:21;;;;;;;3.55;1.52;;;;;;;;;;1019921;29;20127;-73
2023/05/07 03:04:52;;;;;;;2.90;2.15;;;;;;;;;;1023808;29;20023;-73
2023/05/07 03:05:22;;;;;;;2.45;1.23;;;;;;;;;;1024047;29;20023;-73
2023/05/07 03:06:02;;;;;;;8.38;0.75;;;;;;;;;;1023997;29;20027;-74
2023/05/07 03:06:32;;;;;;;3.35;1.80;;;;;;;;;;1023793;29;20483;-74
2023/05/07 03:07:03;;;;;;;3.15;1.27;;;;;;;;;;1023883;29;20358;-74